sensor_id;sensor_type;location;lat;lon;timestamp;P1;durP1;ratioP1;P2;durP2;ratioP2
18568;SDS011;14780;48.316;-1.050;2022-12-29T00:01:36;6.30;;;2.28;;
18568;SDS011;14780;48.316;-1.050;2022-12-29T00:04:22;5.13;;;2.03;;
18568;SDS011;14780;48.316;-1.050;2022-12-29T00:07:07;4.95;;;2.10;;
18568;SDS011;14780;48.316;-1.050;2022-12-29T00:09:52;4.47;;;2.10;;
18568;SDS011;14780;48.316;-1.050;2022-12-29T00:12:37;5.20;;;2.22;;
18568;SDS011;14780;48.316;-1.050;2022-12-29T00:15:40;3.50;;;1.73;;
18568;SDS011;14780;48.316;-1.050;2022-12-29T00:18:26;5.07;;;2.22;;
18568;SDS011;14780;48.316;-1.050;2022-12-29T00:21:15;5.55;;;1.95;;
18568;SDS011;14780;48.316;-1.050;2022-12-29T00:24:20;6.50;;;2.17;;
18568;SDS011;14780;48.316;-1.050;2022-12-29T00:30:10;6.63;;;2.38;;
18568;SDS011;14780;48.316;-1.050;2022-12-29T00:33:16;4.88;;;2.45;;
18568;SDS011;14780;48.316;-1.050;2022-12-29T00:36:23;5.13;;;2.20;;
18568;SDS011;14780;48.316;-1.050;2022-12-29T00:39:16;3.45;;;2.13;;
18568;SDS011;14780;48.316;-1.050;2022-12-29T00:42:20;4.40;;;2.13;;
18568;SDS011;14780;48.316;-1.050;2022-12-29T00:45:24;4.10;;;1.77;;
18568;SDS011;14780;48.316;-1.050;2022-12-29T00:48:09;4.28;;;2.10;;
18568;SDS011;14780;48.316;-1.050;2022-12-29T00:50:55;5.13;;;2.40;;
18568;SDS011;14780;48.316;-1.050;2022-12-29T00:53:40;4.07;;;2.10;;
18568;SDS011;14780;48.316;-1.050;2022-12-29T00:56:25;4.57;;;2.28;;
18568;SDS011;14780;48.316;-1.050;2022-12-29T00:59:10;6.45;;;2.45;;
18568;SDS011;14780;48.316;-1.050;2022-12-29T01:01:55;5.75;;;2.35;;
18568;SDS011;14780;48.316;-1.050;2022-12-29T01:04:40;7.10;;;2.50;;
18568;SDS011;14780;48.316;-1.050;2022-12-29T01:07:25;4.65;;;2.25;;
18568;SDS011;14780;48.316;-1.050;2022-12-29T01:10:09;5.05;;;2.40;;
18568;SDS011;14780;48.316;-1.050;2022-12-29T01:12:54;5.03;;;2.60;;
18568;SDS011;14780;48.316;-1.050;2022-12-29T01:15:39;5.75;;;2.17;;
18568;SDS011;14780;48.316;-1.050;2022-12-29T01:18:24;7.40;;;2.70;;
18568;SDS011;14780;48.316;-1.050;2022-12-29T01:21:09;7.35;;;2.50;;
18568;SDS011;14780;48.316;-1.050;2022-12-29T01:23:54;6.20;;;2.58;;
18568;SDS011;14780;48.316;-1.050;2022-12-29T01:26:38;7.22;;;2.63;;
18568;SDS011;14780;48.316;-1.050;2022-12-29T01:29:23;6.82;;;2.60;;
18568;SDS011;14780;48.316;-1.050;2022-12-29T01:32:08;5.10;;;2.47;;
18568;SDS011;14780;48.316;-1.050;2022-12-29T01:34:53;6.47;;;2.58;;
18568;SDS011;14780;48.316;-1.050;2022-12-29T01:37:37;5.70;;;2.33;;
18568;SDS011;14780;48.316;-1.050;2022-12-29T01:40:22;11.05;;;2.85;;
18568;SDS011;14780;48.316;-1.050;2022-12-29T01:43:08;5.68;;;2.50;;
18568;SDS011;14780;48.316;-1.050;2022-12-29T01:45:54;5.90;;;2.83;;
18568;SDS011;14780;48.316;-1.050;2022-12-29T01:48:39;5.75;;;2.63;;
18568;SDS011;14780;48.316;-1.050;2022-12-29T01:51:24;5.68;;;2.22;;
18568;SDS011;14780;48.316;-1.050;2022-12-29T01:54:23;5.15;;;2.58;;
18568;SDS011;14780;48.316;-1.050;2022-12-29T01:57:10;5.85;;;2.22;;
18568;SDS011;14780;48.316;-1.050;2022-12-29T02:00:09;5.75;;;2.63;;
18568;SDS011;14780;48.316;-1.050;2022-12-29T02:02:55;4.65;;;2.60;;
18568;SDS011;14780;48.316;-1.050;2022-12-29T02:05:54;4.97;;;2.40;;
18568;SDS011;14780;48.316;-1.050;2022-12-29T02:08:52;4.00;;;2.08;;
18568;SDS011;14780;48.316;-1.050;2022-12-29T02:11:39;4.82;;;2.30;;
18568;SDS011;14780;48.316;-1.050;2022-12-29T02:14:24;4.90;;;2.35;;
18568;SDS011;14780;48.316;-1.050;2022-12-29T02:44:02;4.55;;;2.30;;
18568;SDS011;14780;48.316;-1.050;2022-12-29T02:50:01;8.17;;;2.73;;
18568;SDS011;14780;48.316;-1.050;2022-12-29T02:53:01;6.53;;;2.55;;
18568;SDS011;14780;48.316;-1.050;2022-12-29T02:55:56;4.40;;;2.38;;
18568;SDS011;14780;48.316;-1.050;2022-12-29T02:58:41;5.00;;;2.22;;
18568;SDS011;14780;48.316;-1.050;2022-12-29T03:01:33;5.57;;;2.50;;
18568;SDS011;14780;48.316;-1.050;2022-12-29T03:04:56;6.57;;;2.47;;
18568;SDS011;14780;48.316;-1.050;2022-12-29T03:11:28;5.22;;;2.30;;
18568;SDS011;14780;48.316;-1.050;2022-12-29T03:18:05;4.03;;;2.35;;
18568;SDS011;14780;48.316;-1.050;2022-12-29T03:23:58;6.03;;;2.60;;
18568;SDS011;14780;48.316;-1.050;2022-12-29T03:26:43;5.03;;;2.38;;
18568;SDS011;14780;48.316;-1.050;2022-12-29T03:29:31;5.97;;;2.40;;
18568;SDS011;14780;48.316;-1.050;2022-12-29T03:32:23;4.78;;;2.40;;
18568;SDS011;14780;48.316;-1.050;2022-12-29T03:35:15;5.15;;;2.38;;
18568;SDS011;14780;48.316;-1.050;2022-12-29T03:40:52;5.53;;;2.30;;
18568;SDS011;14780;48.316;-1.050;2022-12-29T03:43:40;5.03;;;2.45;;
18568;SDS011;14780;48.316;-1.050;2022-12-29T03:46:25;3.95;;;2.03;;
18568;SDS011;14780;48.316;-1.050;2022-12-29T03:49:10;4.32;;;2.55;;
18568;SDS011;14780;48.316;-1.050;2022-12-29T03:51:54;5.45;;;2.50;;
18568;SDS011;14780;48.316;-1.050;2022-12-29T03:54:39;6.75;;;2.55;;
18568;SDS011;14780;48.316;-1.050;2022-12-29T03:57:24;5.28;;;2.70;;
18568;SDS011;14780;48.316;-1.050;2022-12-29T04:00:08;4.22;;;2.33;;
18568;SDS011;14780;48.316;-1.050;2022-12-29T04:02:55;6.22;;;2.58;;
18568;SDS011;14780;48.316;-1.050;2022-12-29T04:05:40;6.40;;;2.35;;
18568;SDS011;14780;48.316;-1.050;2022-12-29T04:08:24;4.93;;;2.50;;
18568;SDS011;14780;48.316;-1.050;2022-12-29T04:11:09;6.45;;;2.33;;
18568;SDS011;14780;48.316;-1.050;2022-12-29T04:13:54;5.70;;;2.60;;
18568;SDS011;14780;48.316;-1.050;2022-12-29T04:16:38;5.53;;;2.47;;
18568;SDS011;14780;48.316;-1.050;2022-12-29T04:19:23;4.88;;;2.20;;
18568;SDS011;14780;48.316;-1.050;2022-12-29T04:22:07;5.00;;;2.60;;
18568;SDS011;14780;48.316;-1.050;2022-12-29T04:24:52;6.90;;;2.50;;
18568;SDS011;14780;48.316;-1.050;2022-12-29T04:27:37;5.22;;;2.60;;
18568;SDS011;14780;48.316;-1.050;2022-12-29T04:30:21;6.05;;;2.75;;
18568;SDS011;14780;48.316;-1.050;2022-12-29T04:33:06;4.88;;;2.70;;
18568;SDS011;14780;48.316;-1.050;2022-12-29T04:35:51;5.57;;;2.30;;
18568;SDS011;14780;48.316;-1.050;2022-12-29T04:38:37;6.13;;;2.70;;
18568;SDS011;14780;48.316;-1.050;2022-12-29T04:41:21;6.72;;;2.40;;
18568;SDS011;14780;48.316;-1.050;2022-12-29T04:44:06;5.85;;;2.55;;
18568;SDS011;14780;48.316;-1.050;2022-12-29T04:46:51;4.93;;;2.60;;
18568;SDS011;14780;48.316;-1.050;2022-12-29T04:49:36;3.75;;;2.00;;
18568;SDS011;14780;48.316;-1.050;2022-12-29T04:52:20;6.20;;;2.60;;
18568;SDS011;14780;48.316;-1.050;2022-12-29T04:55:05;5.90;;;2.42;;
18568;SDS011;14780;48.316;-1.050;2022-12-29T04:57:50;6.47;;;2.50;;
18568;SDS011;14780;48.316;-1.050;2022-12-29T05:00:35;5.97;;;2.47;;
18568;SDS011;14780;48.316;-1.050;2022-12-29T05:03:20;5.45;;;2.40;;
18568;SDS011;14780;48.316;-1.050;2022-12-29T05:06:05;5.60;;;2.50;;
18568;SDS011;14780;48.316;-1.050;2022-12-29T05:08:50;4.35;;;2.47;;
18568;SDS011;14780;48.316;-1.050;2022-12-29T05:11:34;5.95;;;2.30;;
18568;SDS011;14780;48.316;-1.050;2022-12-29T05:14:19;7.95;;;2.72;;
18568;SDS011;14780;48.316;-1.050;2022-12-29T05:17:04;4.07;;;2.17;;
18568;SDS011;14780;48.316;-1.050;2022-12-29T05:19:48;5.70;;;2.55;;
18568;SDS011;14780;48.316;-1.050;2022-12-29T05:22:33;6.38;;;2.70;;
18568;SDS011;14780;48.316;-1.050;2022-12-29T05:25:18;4.97;;;2.42;;
18568;SDS011;14780;48.316;-1.050;2022-12-29T05:28:03;4.53;;;2.25;;
18568;SDS011;14780;48.316;-1.050;2022-12-29T05:30:51;4.47;;;2.33;;
18568;SDS011;14780;48.316;-1.050;2022-12-29T05:33:36;4.63;;;2.28;;
18568;SDS011;14780;48.316;-1.050;2022-12-29T05:36:20;4.95;;;2.67;;
18568;SDS011;14780;48.316;-1.050;2022-12-29T05:39:05;5.35;;;2.50;;
18568;SDS011;14780;48.316;-1.050;2022-12-29T05:41:51;4.47;;;2.10;;
18568;SDS011;14780;48.316;-1.050;2022-12-29T05:44:37;4.82;;;2.20;;
18568;SDS011;14780;48.316;-1.050;2022-12-29T05:47:22;5.70;;;2.50;;
18568;SDS011;14780;48.316;-1.050;2022-12-29T05:50:06;5.20;;;2.50;;
18568;SDS011;14780;48.316;-1.050;2022-12-29T05:52:51;4.32;;;2.05;;
18568;SDS011;14780;48.316;-1.050;2022-12-29T05:55:36;4.97;;;2.47;;
18568;SDS011;14780;48.316;-1.050;2022-12-29T05:58:21;5.10;;;2.22;;
18568;SDS011;14780;48.316;-1.050;2022-12-29T06:01:05;5.43;;;2.50;;
18568;SDS011;14780;48.316;-1.050;2022-12-29T06:03:50;5.15;;;2.25;;
18568;SDS011;14780;48.316;-1.050;2022-12-29T06:06:35;3.90;;;2.25;;
18568;SDS011;14780;48.316;-1.050;2022-12-29T06:09:19;5.53;;;2.40;;
18568;SDS011;14780;48.316;-1.050;2022-12-29T06:12:04;5.00;;;2.40;;
18568;SDS011;14780;48.316;-1.050;2022-12-29T06:14:49;5.05;;;2.45;;
18568;SDS011;14780;48.316;-1.050;2022-12-29T06:17:34;4.03;;;2.08;;
18568;SDS011;14780;48.316;-1.050;2022-12-29T06:20:18;7.22;;;2.85;;
18568;SDS011;14780;48.316;-1.050;2022-12-29T06:23:03;6.15;;;2.35;;
18568;SDS011;14780;48.316;-1.050;2022-12-29T06:25:48;6.63;;;2.92;;
18568;SDS011;14780;48.316;-1.050;2022-12-29T06:28:33;6.28;;;2.58;;
18568;SDS011;14780;48.316;-1.050;2022-12-29T06:31:17;7.53;;;2.60;;
18568;SDS011;14780;48.316;-1.050;2022-12-29T06:34:02;4.78;;;2.35;;
18568;SDS011;14780;48.316;-1.050;2022-12-29T06:36:46;6.63;;;2.30;;
18568;SDS011;14780;48.316;-1.050;2022-12-29T06:39:31;5.95;;;2.88;;
18568;SDS011;14780;48.316;-1.050;2022-12-29T06:42:15;5.53;;;2.28;;
18568;SDS011;14780;48.316;-1.050;2022-12-29T06:45:00;7.03;;;2.58;;
18568;SDS011;14780;48.316;-1.050;2022-12-29T06:47:45;5.65;;;2.47;;
18568;SDS011;14780;48.316;-1.050;2022-12-29T06:50:30;5.97;;;2.55;;
18568;SDS011;14780;48.316;-1.050;2022-12-29T06:53:14;5.88;;;2.80;;
18568;SDS011;14780;48.316;-1.050;2022-12-29T06:55:59;7.38;;;2.50;;
18568;SDS011;14780;48.316;-1.050;2022-12-29T06:58:44;6.13;;;2.47;;
18568;SDS011;14780;48.316;-1.050;2022-12-29T07:01:28;7.72;;;2.50;;
18568;SDS011;14780;48.316;-1.050;2022-12-29T07:04:13;6.28;;;3.00;;
18568;SDS011;14780;48.316;-1.050;2022-12-29T07:06:58;5.38;;;2.60;;
18568;SDS011;14780;48.316;-1.050;2022-12-29T07:09:42;5.60;;;2.35;;
18568;SDS011;14780;48.316;-1.050;2022-12-29T07:12:27;5.53;;;2.58;;
18568;SDS011;14780;48.316;-1.050;2022-12-29T07:15:12;7.15;;;2.65;;
18568;SDS011;14780;48.316;-1.050;2022-12-29T07:17:57;5.82;;;2.42;;
18568;SDS011;14780;48.316;-1.050;2022-12-29T07:20:41;6.15;;;2.85;;
18568;SDS011;14780;48.316;-1.050;2022-12-29T07:23:26;5.57;;;2.60;;
18568;SDS011;14780;48.316;-1.050;2022-12-29T07:26:12;4.63;;;2.30;;
18568;SDS011;14780;48.316;-1.050;2022-12-29T07:28:59;7.47;;;2.55;;
18568;SDS011;14780;48.316;-1.050;2022-12-29T07:31:44;5.70;;;2.53;;
18568;SDS011;14780;48.316;-1.050;2022-12-29T07:34:29;4.97;;;2.55;;
18568;SDS011;14780;48.316;-1.050;2022-12-29T07:37:17;6.57;;;2.78;;
18568;SDS011;14780;48.316;-1.050;2022-12-29T07:40:02;5.97;;;2.70;;
18568;SDS011;14780;48.316;-1.050;2022-12-29T07:42:47;5.45;;;2.58;;
18568;SDS011;14780;48.316;-1.050;2022-12-29T07:45:32;6.30;;;2.38;;
18568;SDS011;14780;48.316;-1.050;2022-12-29T07:48:16;4.45;;;2.40;;
18568;SDS011;14780;48.316;-1.050;2022-12-29T07:51:01;6.25;;;2.65;;
18568;SDS011;14780;48.316;-1.050;2022-12-29T07:53:45;5.90;;;2.30;;
18568;SDS011;14780;48.316;-1.050;2022-12-29T07:56:30;5.30;;;2.67;;
18568;SDS011;14780;48.316;-1.050;2022-12-29T07:59:15;4.55;;;2.22;;
18568;SDS011;14780;48.316;-1.050;2022-12-29T08:02:00;5.28;;;2.90;;
18568;SDS011;14780;48.316;-1.050;2022-12-29T08:04:45;5.72;;;2.67;;
18568;SDS011;14780;48.316;-1.050;2022-12-29T08:07:30;5.60;;;2.63;;
18568;SDS011;14780;48.316;-1.050;2022-12-29T08:10:15;6.95;;;2.72;;
18568;SDS011;14780;48.316;-1.050;2022-12-29T08:13:00;6.55;;;2.50;;
18568;SDS011;14780;48.316;-1.050;2022-12-29T08:15:45;7.03;;;2.65;;
18568;SDS011;14780;48.316;-1.050;2022-12-29T08:18:29;8.38;;;2.58;;
18568;SDS011;14780;48.316;-1.050;2022-12-29T08:21:14;6.82;;;2.70;;
18568;SDS011;14780;48.316;-1.050;2022-12-29T08:23:58;8.73;;;2.70;;
18568;SDS011;14780;48.316;-1.050;2022-12-29T08:26:43;8.30;;;2.60;;
18568;SDS011;14780;48.316;-1.050;2022-12-29T08:29:28;6.25;;;2.47;;
18568;SDS011;14780;48.316;-1.050;2022-12-29T08:32:13;5.03;;;2.13;;
18568;SDS011;14780;48.316;-1.050;2022-12-29T08:34:58;5.80;;;2.42;;
18568;SDS011;14780;48.316;-1.050;2022-12-29T08:37:44;5.55;;;2.58;;
18568;SDS011;14780;48.316;-1.050;2022-12-29T08:40:28;8.07;;;2.85;;
18568;SDS011;14780;48.316;-1.050;2022-12-29T08:43:13;5.07;;;2.40;;
18568;SDS011;14780;48.316;-1.050;2022-12-29T08:45:58;7.22;;;3.03;;
18568;SDS011;14780;48.316;-1.050;2022-12-29T08:48:43;6.18;;;2.40;;
18568;SDS011;14780;48.316;-1.050;2022-12-29T08:51:28;5.25;;;2.63;;
18568;SDS011;14780;48.316;-1.050;2022-12-29T08:54:13;5.95;;;2.45;;
18568;SDS011;14780;48.316;-1.050;2022-12-29T08:56:58;6.63;;;2.67;;
18568;SDS011;14780;48.316;-1.050;2022-12-29T08:59:42;7.35;;;2.45;;
18568;SDS011;14780;48.316;-1.050;2022-12-29T09:02:27;10.02;;;2.60;;
18568;SDS011;14780;48.316;-1.050;2022-12-29T09:05:11;5.60;;;2.42;;
18568;SDS011;14780;48.316;-1.050;2022-12-29T09:07:56;8.07;;;2.90;;
18568;SDS011;14780;48.316;-1.050;2022-12-29T09:10:41;7.63;;;3.00;;
18568;SDS011;14780;48.316;-1.050;2022-12-29T09:13:26;11.27;;;3.13;;
18568;SDS011;14780;48.316;-1.050;2022-12-29T09:16:10;5.32;;;2.80;;
18568;SDS011;14780;48.316;-1.050;2022-12-29T09:18:55;7.25;;;2.65;;
18568;SDS011;14780;48.316;-1.050;2022-12-29T09:21:40;9.93;;;2.90;;
18568;SDS011;14780;48.316;-1.050;2022-12-29T09:24:25;6.63;;;2.80;;
18568;SDS011;14780;48.316;-1.050;2022-12-29T09:27:09;10.90;;;2.80;;
18568;SDS011;14780;48.316;-1.050;2022-12-29T09:29:54;4.78;;;2.53;;
18568;SDS011;14780;48.316;-1.050;2022-12-29T09:32:40;8.48;;;2.85;;
18568;SDS011;14780;48.316;-1.050;2022-12-29T09:35:24;5.90;;;2.63;;
18568;SDS011;14780;48.316;-1.050;2022-12-29T09:38:09;5.40;;;2.67;;
18568;SDS011;14780;48.316;-1.050;2022-12-29T09:40:56;5.78;;;2.35;;
18568;SDS011;14780;48.316;-1.050;2022-12-29T09:46:58;6.22;;;2.88;;
18568;SDS011;14780;48.316;-1.050;2022-12-29T09:49:45;7.20;;;2.90;;
18568;SDS011;14780;48.316;-1.050;2022-12-29T09:52:37;6.82;;;2.70;;
18568;SDS011;14780;48.316;-1.050;2022-12-29T09:55:35;6.35;;;2.35;;
18568;SDS011;14780;48.316;-1.050;2022-12-29T09:58:36;5.78;;;2.92;;
18568;SDS011;14780;48.316;-1.050;2022-12-29T10:01:52;5.07;;;2.60;;
18568;SDS011;14780;48.316;-1.050;2022-12-29T10:04:47;7.15;;;2.60;;
18568;SDS011;14780;48.316;-1.050;2022-12-29T10:14:11;5.35;;;2.80;;
18568;SDS011;14780;48.316;-1.050;2022-12-29T10:25:38;8.10;;;3.00;;
18568;SDS011;14780;48.316;-1.050;2022-12-29T10:28:33;8.07;;;2.95;;
18568;SDS011;14780;48.316;-1.050;2022-12-29T10:31:23;7.93;;;2.50;;
18568;SDS011;14780;48.316;-1.050;2022-12-29T10:34:17;7.82;;;2.78;;
18568;SDS011;14780;48.316;-1.050;2022-12-29T10:39:54;7.68;;;2.95;;
18568;SDS011;14780;48.316;-1.050;2022-12-29T10:42:41;9.60;;;3.00;;
18568;SDS011;14780;48.316;-1.050;2022-12-29T10:45:29;5.50;;;2.63;;
18568;SDS011;14780;48.316;-1.050;2022-12-29T10:48:35;5.60;;;2.72;;
18568;SDS011;14780;48.316;-1.050;2022-12-29T10:54:11;6.35;;;2.60;;
18568;SDS011;14780;48.316;-1.050;2022-12-29T10:57:13;6.78;;;2.63;;
18568;SDS011;14780;48.316;-1.050;2022-12-29T11:00:16;8.18;;;3.10;;
18568;SDS011;14780;48.316;-1.050;2022-12-29T11:03:21;8.85;;;3.20;;
18568;SDS011;14780;48.316;-1.050;2022-12-29T11:06:26;12.70;;;3.30;;
18568;SDS011;14780;48.316;-1.050;2022-12-29T11:09:18;5.15;;;2.65;;
18568;SDS011;14780;48.316;-1.050;2022-12-29T11:17:57;10.15;;;2.83;;
18568;SDS011;14780;48.316;-1.050;2022-12-29T11:20:43;7.78;;;2.70;;
18568;SDS011;14780;48.316;-1.050;2022-12-29T11:26:16;10.35;;;3.40;;
18568;SDS011;14780;48.316;-1.050;2022-12-29T11:31:54;9.45;;;3.10;;
18568;SDS011;14780;48.316;-1.050;2022-12-29T11:34:41;7.43;;;2.75;;
18568;SDS011;14780;48.316;-1.050;2022-12-29T11:40:18;14.55;;;3.25;;
18568;SDS011;14780;48.316;-1.050;2022-12-29T11:43:04;8.10;;;3.23;;
18568;SDS011;14780;48.316;-1.050;2022-12-29T11:45:51;8.90;;;3.20;;
18568;SDS011;14780;48.316;-1.050;2022-12-29T11:48:40;7.60;;;3.33;;
18568;SDS011;14780;48.316;-1.050;2022-12-29T11:51:27;7.65;;;3.10;;
18568;SDS011;14780;48.316;-1.050;2022-12-29T11:54:20;8.38;;;3.17;;
18568;SDS011;14780;48.316;-1.050;2022-12-29T11:57:12;9.77;;;3.65;;
18568;SDS011;14780;48.316;-1.050;2022-12-29T12:00:00;11.57;;;3.30;;
18568;SDS011;14780;48.316;-1.050;2022-12-29T12:03:05;6.30;;;3.30;;
18568;SDS011;14780;48.316;-1.050;2022-12-29T12:05:56;9.45;;;3.05;;
18568;SDS011;14780;48.316;-1.050;2022-12-29T12:11:38;9.90;;;3.17;;
18568;SDS011;14780;48.316;-1.050;2022-12-29T12:14:31;9.73;;;3.40;;
18568;SDS011;14780;48.316;-1.050;2022-12-29T12:17:40;7.80;;;2.97;;
18568;SDS011;14780;48.316;-1.050;2022-12-29T12:20:35;6.97;;;2.92;;
18568;SDS011;14780;48.316;-1.050;2022-12-29T12:23:39;9.90;;;3.28;;
18568;SDS011;14780;48.316;-1.050;2022-12-29T12:38:55;9.38;;;3.28;;
18568;SDS011;14780;48.316;-1.050;2022-12-29T12:51:14;7.33;;;3.40;;
18568;SDS011;14780;48.316;-1.050;2022-12-29T12:54:01;11.27;;;3.10;;
18568;SDS011;14780;48.316;-1.050;2022-12-29T12:59:59;8.25;;;3.45;;
18568;SDS011;14780;48.316;-1.050;2022-12-29T13:09:16;7.32;;;3.30;;
18568;SDS011;14780;48.316;-1.050;2022-12-29T13:18:26;5.78;;;2.97;;
18568;SDS011;14780;48.316;-1.050;2022-12-29T13:21:27;11.32;;;3.15;;
18568;SDS011;14780;48.316;-1.050;2022-12-29T13:30:12;7.65;;;2.90;;
18568;SDS011;14780;48.316;-1.050;2022-12-29T13:35:54;7.97;;;2.63;;
18568;SDS011;14780;48.316;-1.050;2022-12-29T13:38:48;9.25;;;3.10;;
18568;SDS011;14780;48.316;-1.050;2022-12-29T13:41:51;6.93;;;2.78;;
18568;SDS011;14780;48.316;-1.050;2022-12-29T13:44:39;7.03;;;3.15;;
18568;SDS011;14780;48.316;-1.050;2022-12-29T13:47:55;7.68;;;3.50;;
18568;SDS011;14780;48.316;-1.050;2022-12-29T13:51:17;10.73;;;3.15;;
18568;SDS011;14780;48.316;-1.050;2022-12-29T13:54:11;6.00;;;2.90;;
18568;SDS011;14780;48.316;-1.050;2022-12-29T14:00:16;5.53;;;2.67;;
18568;SDS011;14780;48.316;-1.050;2022-12-29T14:03:12;9.80;;;3.22;;
18568;SDS011;14780;48.316;-1.050;2022-12-29T14:06:13;7.03;;;3.55;;
18568;SDS011;14780;48.316;-1.050;2022-12-29T14:09:31;7.03;;;2.80;;
18568;SDS011;14780;48.316;-1.050;2022-12-29T14:12:32;11.25;;;3.22;;
18568;SDS011;14780;48.316;-1.050;2022-12-29T14:15:24;10.48;;;3.70;;
18568;SDS011;14780;48.316;-1.050;2022-12-29T14:21:07;5.82;;;2.90;;
18568;SDS011;14780;48.316;-1.050;2022-12-29T14:33:32;7.82;;;3.20;;
18568;SDS011;14780;48.316;-1.050;2022-12-29T14:36:19;8.07;;;2.88;;
18568;SDS011;14780;48.316;-1.050;2022-12-29T14:42:24;9.75;;;3.22;;
18568;SDS011;14780;48.316;-1.050;2022-12-29T14:47:56;6.07;;;2.70;;
18568;SDS011;14780;48.316;-1.050;2022-12-29T14:50:42;5.95;;;2.90;;
18568;SDS011;14780;48.316;-1.050;2022-12-29T14:53:42;6.88;;;3.47;;
18568;SDS011;14780;48.316;-1.050;2022-12-29T14:56:32;6.50;;;2.88;;
18568;SDS011;14780;48.316;-1.050;2022-12-29T14:59:17;8.13;;;3.20;;
18568;SDS011;14780;48.316;-1.050;2022-12-29T15:02:11;8.00;;;3.33;;
18568;SDS011;14780;48.316;-1.050;2022-12-29T15:05:03;9.65;;;3.38;;
18568;SDS011;14780;48.316;-1.050;2022-12-29T15:07:56;7.30;;;3.10;;
18568;SDS011;14780;48.316;-1.050;2022-12-29T15:10:45;6.53;;;2.90;;
18568;SDS011;14780;48.316;-1.050;2022-12-29T15:13:37;6.50;;;3.35;;
18568;SDS011;14780;48.316;-1.050;2022-12-29T15:16:26;6.18;;;2.90;;
18568;SDS011;14780;48.316;-1.050;2022-12-29T15:19:21;7.32;;;3.13;;
18568;SDS011;14780;48.316;-1.050;2022-12-29T15:22:08;5.47;;;2.95;;
18568;SDS011;14780;48.316;-1.050;2022-12-29T15:24:55;7.57;;;3.15;;
18568;SDS011;14780;48.316;-1.050;2022-12-29T15:27:40;7.07;;;3.15;;
18568;SDS011;14780;48.316;-1.050;2022-12-29T15:30:25;6.80;;;3.20;;
18568;SDS011;14780;48.316;-1.050;2022-12-29T15:33:28;6.15;;;2.78;;
18568;SDS011;14780;48.316;-1.050;2022-12-29T15:36:23;5.53;;;2.83;;
18568;SDS011;14780;48.316;-1.050;2022-12-29T15:39:19;6.57;;;2.80;;
18568;SDS011;14780;48.316;-1.050;2022-12-29T15:45:13;5.07;;;2.65;;
18568;SDS011;14780;48.316;-1.050;2022-12-29T15:47:59;6.70;;;2.67;;
18568;SDS011;14780;48.316;-1.050;2022-12-29T15:50:44;5.20;;;2.40;;
18568;SDS011;14780;48.316;-1.050;2022-12-29T15:53:30;4.95;;;2.83;;
18568;SDS011;14780;48.316;-1.050;2022-12-29T15:56:17;6.13;;;2.80;;
18568;SDS011;14780;48.316;-1.050;2022-12-29T15:59:02;5.25;;;2.58;;
18568;SDS011;14780;48.316;-1.050;2022-12-29T16:01:47;4.93;;;2.30;;
18568;SDS011;14780;48.316;-1.050;2022-12-29T16:04:32;4.28;;;2.45;;
18568;SDS011;14780;48.316;-1.050;2022-12-29T16:07:25;6.82;;;2.72;;
18568;SDS011;14780;48.316;-1.050;2022-12-29T16:10:36;5.78;;;2.85;;
18568;SDS011;14780;48.316;-1.050;2022-12-29T16:13:41;5.03;;;2.35;;
18568;SDS011;14780;48.316;-1.050;2022-12-29T16:16:28;6.25;;;2.85;;
18568;SDS011;14780;48.316;-1.050;2022-12-29T16:19:20;6.38;;;2.60;;
18568;SDS011;14780;48.316;-1.050;2022-12-29T16:22:17;5.93;;;2.55;;
18568;SDS011;14780;48.316;-1.050;2022-12-29T16:25:16;5.15;;;2.60;;
18568;SDS011;14780;48.316;-1.050;2022-12-29T16:28:22;3.88;;;2.40;;
18568;SDS011;14780;48.316;-1.050;2022-12-29T16:31:32;8.07;;;2.60;;
18568;SDS011;14780;48.316;-1.050;2022-12-29T16:35:08;7.03;;;2.67;;
18568;SDS011;14780;48.316;-1.050;2022-12-29T16:37:28;4.28;;;2.38;;
18568;SDS011;14780;48.316;-1.050;2022-12-29T16:40:29;5.47;;;2.28;;
18568;SDS011;14780;48.316;-1.050;2022-12-29T16:43:22;4.38;;;2.28;;
18568;SDS011;14780;48.316;-1.050;2022-12-29T16:46:18;5.32;;;2.55;;
18568;SDS011;14780;48.316;-1.050;2022-12-29T16:49:17;5.60;;;2.38;;
18568;SDS011;14780;48.316;-1.050;2022-12-29T16:52:13;5.30;;;2.60;;
18568;SDS011;14780;48.316;-1.050;2022-12-29T16:55:14;4.38;;;2.30;;
18568;SDS011;14780;48.316;-1.050;2022-12-29T16:58:01;5.15;;;2.40;;
18568;SDS011;14780;48.316;-1.050;2022-12-29T17:00:46;4.70;;;2.70;;
18568;SDS011;14780;48.316;-1.050;2022-12-29T17:03:32;6.25;;;2.55;;
18568;SDS011;14780;48.316;-1.050;2022-12-29T17:06:22;5.82;;;2.08;;
18568;SDS011;14780;48.316;-1.050;2022-12-29T17:12:10;4.35;;;2.42;;
18568;SDS011;14780;48.316;-1.050;2022-12-29T17:15:06;7.90;;;2.80;;
18568;SDS011;14780;48.316;-1.050;2022-12-29T17:18:21;4.13;;;2.22;;
18568;SDS011;14780;48.316;-1.050;2022-12-29T17:21:06;7.38;;;2.38;;
18568;SDS011;14780;48.316;-1.050;2022-12-29T17:23:50;7.18;;;2.50;;
18568;SDS011;14780;48.316;-1.050;2022-12-29T17:26:35;6.95;;;2.67;;
18568;SDS011;14780;48.316;-1.050;2022-12-29T17:32:14;4.88;;;2.40;;
18568;SDS011;14780;48.316;-1.050;2022-12-29T17:34:59;5.43;;;2.45;;
18568;SDS011;14780;48.316;-1.050;2022-12-29T17:37:44;6.70;;;2.47;;
18568;SDS011;14780;48.316;-1.050;2022-12-29T17:40:31;8.40;;;2.88;;
18568;SDS011;14780;48.316;-1.050;2022-12-29T17:43:16;6.15;;;2.33;;
18568;SDS011;14780;48.316;-1.050;2022-12-29T17:46:02;5.05;;;2.40;;
18568;SDS011;14780;48.316;-1.050;2022-12-29T17:48:50;6.97;;;2.53;;
18568;SDS011;14780;48.316;-1.050;2022-12-29T17:51:35;17.15;;;6.68;;
18568;SDS011;14780;48.316;-1.050;2022-12-29T17:54:21;45.65;;;14.95;;
18568;SDS011;14780;48.316;-1.050;2022-12-29T17:57:10;35.38;;;14.73;;
18568;SDS011;14780;48.316;-1.050;2022-12-29T17:59:57;45.03;;;15.25;;
18568;SDS011;14780;48.316;-1.050;2022-12-29T18:02:41;39.08;;;14.20;;
18568;SDS011;14780;48.316;-1.050;2022-12-29T18:05:27;36.17;;;13.95;;
18568;SDS011;14780;48.316;-1.050;2022-12-29T18:08:13;35.00;;;13.05;;
18568;SDS011;14780;48.316;-1.050;2022-12-29T18:10:58;28.27;;;11.88;;
18568;SDS011;14780;48.316;-1.050;2022-12-29T18:13:43;30.08;;;12.27;;
18568;SDS011;14780;48.316;-1.050;2022-12-29T18:16:31;27.45;;;11.07;;
18568;SDS011;14780;48.316;-1.050;2022-12-29T18:19:16;31.75;;;11.65;;
18568;SDS011;14780;48.316;-1.050;2022-12-29T18:22:01;40.70;;;13.50;;
18568;SDS011;14780;48.316;-1.050;2022-12-29T18:24:46;57.97;;;18.98;;
18568;SDS011;14780;48.316;-1.050;2022-12-29T18:27:31;58.30;;;18.33;;
18568;SDS011;14780;48.316;-1.050;2022-12-29T18:30:18;51.33;;;17.98;;
18568;SDS011;14780;48.316;-1.050;2022-12-29T18:33:03;43.70;;;17.10;;
18568;SDS011;14780;48.316;-1.050;2022-12-29T18:35:59;48.60;;;16.30;;
18568;SDS011;14780;48.316;-1.050;2022-12-29T18:38:45;48.08;;;15.77;;
18568;SDS011;14780;48.316;-1.050;2022-12-29T18:41:30;39.08;;;15.02;;
18568;SDS011;14780;48.316;-1.050;2022-12-29T18:44:15;37.05;;;14.70;;
18568;SDS011;14780;48.316;-1.050;2022-12-29T18:47:00;40.20;;;13.18;;
18568;SDS011;14780;48.316;-1.050;2022-12-29T18:49:45;38.22;;;13.13;;
18568;SDS011;14780;48.316;-1.050;2022-12-29T18:52:30;33.70;;;12.90;;
18568;SDS011;14780;48.316;-1.050;2022-12-29T18:55:17;33.13;;;11.82;;
18568;SDS011;14780;48.316;-1.050;2022-12-29T18:58:04;28.60;;;11.30;;
18568;SDS011;14780;48.316;-1.050;2022-12-29T19:00:48;35.15;;;11.00;;
18568;SDS011;14780;48.316;-1.050;2022-12-29T19:03:34;28.45;;;11.10;;
18568;SDS011;14780;48.316;-1.050;2022-12-29T19:06:19;22.95;;;10.00;;
18568;SDS011;14780;48.316;-1.050;2022-12-29T19:09:03;28.02;;;9.40;;
18568;SDS011;14780;48.316;-1.050;2022-12-29T19:11:50;22.02;;;10.00;;
18568;SDS011;14780;48.316;-1.050;2022-12-29T19:14:34;27.40;;;10.52;;
18568;SDS011;14780;48.316;-1.050;2022-12-29T19:17:19;20.15;;;7.97;;
18568;SDS011;14780;48.316;-1.050;2022-12-29T19:20:03;24.58;;;8.85;;
18568;SDS011;14780;48.316;-1.050;2022-12-29T19:22:48;20.50;;;7.93;;